sensor_id;sensor_type;location;lat;lon;timestamp;P1;durP1;ratioP1;P2;durP2;ratioP2
17854;SDS011;9053;53.358;6.382;2023-11-22T00:01:17;8.53;;;5.87;;
17854;SDS011;9053;53.358;6.382;2023-11-22T00:03:49;10.67;;;6.27;;
17854;SDS011;9053;53.358;6.382;2023-11-22T00:06:19;10.00;;;6.10;;
17854;SDS011;9053;53.358;6.382;2023-11-22T00:08:52;9.57;;;5.53;;
17854;SDS011;9053;53.358;6.382;2023-11-22T00:11:22;8.03;;;5.43;;
17854;SDS011;9053;53.358;6.382;2023-11-22T00:13:52;8.80;;;5.97;;
17854;SDS011;9053;53.358;6.382;2023-11-22T00:16:24;8.53;;;5.70;;
17854;SDS011;9053;53.358;6.382;2023-11-22T00:18:54;10.07;;;6.00;;
17854;SDS011;9053;53.358;6.382;2023-11-22T00:21:26;9.27;;;5.97;;
17854;SDS011;9053;53.358;6.382;2023-11-22T00:23:59;8.53;;;6.23;;
17854;SDS011;9053;53.358;6.382;2023-11-22T00:26:30;9.87;;;6.53;;
17854;SDS011;9053;53.358;6.382;2023-11-22T00:29:00;9.43;;;6.37;;
17854;SDS011;9053;53.358;6.382;2023-11-22T00:31:30;11.43;;;6.07;;
17854;SDS011;9053;53.358;6.382;2023-11-22T00:34:00;8.43;;;5.80;;
17854;SDS011;9053;53.358;6.382;2023-11-22T00:36:30;8.83;;;5.53;;
17854;SDS011;9053;53.358;6.382;2023-11-22T00:39:03;9.63;;;5.47;;
17854;SDS011;9053;53.358;6.382;2023-11-22T00:41:39;8.10;;;5.03;;
17854;SDS011;9053;53.358;6.382;2023-11-22T00:44:10;8.77;;;5.00;;
17854;SDS011;9053;53.358;6.382;2023-11-22T00:46:41;9.13;;;5.47;;
17854;SDS011;9053;53.358;6.382;2023-11-22T00:49:12;8.90;;;5.37;;
17854;SDS011;9053;53.358;6.382;2023-11-22T00:51:44;8.77;;;5.60;;
17854;SDS011;9053;53.358;6.382;2023-11-22T00:54:18;8.27;;;5.67;;
17854;SDS011;9053;53.358;6.382;2023-11-22T00:56:48;9.37;;;6.13;;
17854;SDS011;9053;53.358;6.382;2023-11-22T00:59:18;8.80;;;5.37;;
17854;SDS011;9053;53.358;6.382;2023-11-22T01:01:48;10.17;;;5.43;;
17854;SDS011;9053;53.358;6.382;2023-11-22T01:04:18;9.70;;;5.80;;
17854;SDS011;9053;53.358;6.382;2023-11-22T01:06:49;8.70;;;5.63;;
17854;SDS011;9053;53.358;6.382;2023-11-22T01:09:21;8.17;;;5.30;;
17854;SDS011;9053;53.358;6.382;2023-11-22T01:11:51;9.63;;;5.90;;
17854;SDS011;9053;53.358;6.382;2023-11-22T01:14:21;6.90;;;5.20;;
17854;SDS011;9053;53.358;6.382;2023-11-22T01:16:53;7.13;;;5.30;;
17854;SDS011;9053;53.358;6.382;2023-11-22T01:19:23;10.03;;;5.23;;
17854;SDS011;9053;53.358;6.382;2023-11-22T01:21:56;9.43;;;6.00;;
17854;SDS011;9053;53.358;6.382;2023-11-22T01:24:28;8.37;;;5.20;;
17854;SDS011;9053;53.358;6.382;2023-11-22T01:26:59;8.30;;;5.53;;
17854;SDS011;9053;53.358;6.382;2023-11-22T01:29:29;8.77;;;5.17;;
17854;SDS011;9053;53.358;6.382;2023-11-22T01:32:01;8.40;;;5.30;;
17854;SDS011;9053;53.358;6.382;2023-11-22T01:34:32;8.43;;;4.67;;
17854;SDS011;9053;53.358;6.382;2023-11-22T01:37:03;6.97;;;4.93;;
17854;SDS011;9053;53.358;6.382;2023-11-22T01:39:38;7.37;;;4.33;;
17854;SDS011;9053;53.358;6.382;2023-11-22T01:42:09;7.27;;;4.70;;
17854;SDS011;9053;53.358;6.382;2023-11-22T01:44:39;8.33;;;5.33;;
17854;SDS011;9053;53.358;6.382;2023-11-22T01:47:09;6.93;;;4.63;;
17854;SDS011;9053;53.358;6.382;2023-11-22T01:49:42;5.67;;;3.97;;
17854;SDS011;9053;53.358;6.382;2023-11-22T01:52:13;8.73;;;4.97;;
17854;SDS011;9053;53.358;6.382;2023-11-22T01:54:46;6.33;;;4.60;;
17854;SDS011;9053;53.358;6.382;2023-11-22T01:57:17;7.33;;;4.33;;
17854;SDS011;9053;53.358;6.382;2023-11-22T01:59:48;6.80;;;5.00;;
17854;SDS011;9053;53.358;6.382;2023-11-22T02:02:18;5.97;;;4.20;;
17854;SDS011;9053;53.358;6.382;2023-11-22T02:04:49;8.20;;;5.50;;
17854;SDS011;9053;53.358;6.382;2023-11-22T02:07:16;6.73;;;4.70;;
17854;SDS011;9053;53.358;6.382;2023-11-22T02:09:49;6.97;;;4.40;;
17854;SDS011;9053;53.358;6.382;2023-11-22T02:12:19;5.80;;;4.00;;
17854;SDS011;9053;53.358;6.382;2023-11-22T02:14:50;6.00;;;4.50;;
17854;SDS011;9053;53.358;6.382;2023-11-22T02:17:20;7.23;;;4.73;;
17854;SDS011;9053;53.358;6.382;2023-11-22T02:19:50;6.17;;;4.20;;
17854;SDS011;9053;53.358;6.382;2023-11-22T02:22:20;6.33;;;4.10;;
17854;SDS011;9053;53.358;6.382;2023-11-22T02:24:52;7.37;;;4.67;;
17854;SDS011;9053;53.358;6.382;2023-11-22T02:27:22;6.77;;;4.67;;
17854;SDS011;9053;53.358;6.382;2023-11-22T02:29:52;8.23;;;4.93;;
17854;SDS011;9053;53.358;6.382;2023-11-22T02:32:22;6.50;;;4.70;;
17854;SDS011;9053;53.358;6.382;2023-11-22T02:34:54;8.23;;;4.83;;
17854;SDS011;9053;53.358;6.382;2023-11-22T02:37:24;6.60;;;4.80;;
17854;SDS011;9053;53.358;6.382;2023-11-22T02:39:58;6.40;;;5.00;;
17854;SDS011;9053;53.358;6.382;2023-11-22T02:42:34;6.43;;;4.40;;
17854;SDS011;9053;53.358;6.382;2023-11-22T02:45:05;7.27;;;4.80;;
17854;SDS011;9053;53.358;6.382;2023-11-22T02:47:36;6.37;;;4.63;;
17854;SDS011;9053;53.358;6.382;2023-11-22T02:50:10;7.90;;;4.93;;
17854;SDS011;9053;53.358;6.382;2023-11-22T02:52:41;6.70;;;4.70;;
17854;SDS011;9053;53.358;6.382;2023-11-22T02:55:14;6.93;;;4.87;;
17854;SDS011;9053;53.358;6.382;2023-11-22T02:57:44;7.57;;;5.40;;
17854;SDS011;9053;53.358;6.382;2023-11-22T03:00:15;7.63;;;4.60;;
17854;SDS011;9053;53.358;6.382;2023-11-22T03:02:46;7.90;;;4.87;;
17854;SDS011;9053;53.358;6.382;2023-11-22T03:05:21;9.30;;;5.77;;
17854;SDS011;9053;53.358;6.382;2023-11-22T03:07:51;8.67;;;5.30;;
17854;SDS011;9053;53.358;6.382;2023-11-22T03:10:23;8.80;;;6.07;;
17854;SDS011;9053;53.358;6.382;2023-11-22T03:12:56;8.00;;;5.53;;
17854;SDS011;9053;53.358;6.382;2023-11-22T03:15:26;9.33;;;5.43;;
17854;SDS011;9053;53.358;6.382;2023-11-22T03:17:56;9.13;;;5.60;;
17854;SDS011;9053;53.358;6.382;2023-11-22T03:20:27;8.37;;;5.47;;
17854;SDS011;9053;53.358;6.382;2023-11-22T03:22:57;9.80;;;5.90;;
17854;SDS011;9053;53.358;6.382;2023-11-22T03:25:32;8.77;;;5.60;;
17854;SDS011;9053;53.358;6.382;2023-11-22T03:28:03;7.93;;;5.23;;
17854;SDS011;9053;53.358;6.382;2023-11-22T03:30:33;9.00;;;5.47;;
17854;SDS011;9053;53.358;6.382;2023-11-22T03:33:04;7.07;;;5.00;;
17854;SDS011;9053;53.358;6.382;2023-11-22T03:35:34;9.47;;;5.40;;
17854;SDS011;9053;53.358;6.382;2023-11-22T03:38:03;7.93;;;5.67;;
17854;SDS011;9053;53.358;6.382;2023-11-22T03:40:37;9.83;;;5.97;;
17854;SDS011;9053;53.358;6.382;2023-11-22T03:43:07;10.43;;;5.97;;
17854;SDS011;9053;53.358;6.382;2023-11-22T03:45:37;9.10;;;5.80;;
17854;SDS011;9053;53.358;6.382;2023-11-22T03:48:07;10.07;;;5.83;;
17854;SDS011;9053;53.358;6.382;2023-11-22T03:50:40;9.43;;;6.10;;
17854;SDS011;9053;53.358;6.382;2023-11-22T03:53:10;9.20;;;5.63;;
17854;SDS011;9053;53.358;6.382;2023-11-22T03:55:43;9.43;;;5.93;;
17854;SDS011;9053;53.358;6.382;2023-11-22T03:58:13;10.33;;;5.40;;
17854;SDS011;9053;53.358;6.382;2023-11-22T04:00:44;8.47;;;5.67;;
17854;SDS011;9053;53.358;6.382;2023-11-22T04:03:14;8.43;;;5.37;;
17854;SDS011;9053;53.358;6.382;2023-11-22T04:05:45;7.37;;;4.53;;
17854;SDS011;9053;53.358;6.382;2023-11-22T04:08:15;6.90;;;4.70;;
17854;SDS011;9053;53.358;6.382;2023-11-22T04:10:47;7.93;;;5.23;;
17854;SDS011;9053;53.358;6.382;2023-11-22T04:13:17;8.37;;;4.93;;
17854;SDS011;9053;53.358;6.382;2023-11-22T04:15:48;7.67;;;4.67;;
17854;SDS011;9053;53.358;6.382;2023-11-22T04:18:18;8.13;;;5.07;;
17854;SDS011;9053;53.358;6.382;2023-11-22T04:20:48;7.13;;;4.80;;
17854;SDS011;9053;53.358;6.382;2023-11-22T04:23:18;9.07;;;5.80;;
17854;SDS011;9053;53.358;6.382;2023-11-22T04:25:51;9.33;;;5.70;;
17854;SDS011;9053;53.358;6.382;2023-11-22T04:28:22;8.03;;;5.43;;
17854;SDS011;9053;53.358;6.382;2023-11-22T04:30:51;10.67;;;5.60;;
17854;SDS011;9053;53.358;6.382;2023-11-22T04:33:23;9.00;;;5.33;;
17854;SDS011;9053;53.358;6.382;2023-11-22T04:35:55;9.20;;;5.90;;
17854;SDS011;9053;53.358;6.382;2023-11-22T04:38:25;9.20;;;5.53;;
17854;SDS011;9053;53.358;6.382;2023-11-22T04:40:57;8.17;;;5.83;;
17854;SDS011;9053;53.358;6.382;2023-11-22T04:43:27;10.00;;;5.87;;
17854;SDS011;9053;53.358;6.382;2023-11-22T04:45:58;9.57;;;5.90;;
17854;SDS011;9053;53.358;6.382;2023-11-22T04:48:28;10.67;;;5.97;;
17854;SDS011;9053;53.358;6.382;2023-11-22T04:50:58;11.23;;;6.03;;
17854;SDS011;9053;53.358;6.382;2023-11-22T04:53:28;10.90;;;6.77;;
17854;SDS011;9053;53.358;6.382;2023-11-22T04:56:02;8.93;;;5.97;;
17854;SDS011;9053;53.358;6.382;2023-11-22T04:58:32;12.03;;;6.90;;
17854;SDS011;9053;53.358;6.382;2023-11-22T05:01:10;10.50;;;6.00;;
17854;SDS011;9053;53.358;6.382;2023-11-22T05:03:43;9.60;;;5.90;;
17854;SDS011;9053;53.358;6.382;2023-11-22T05:06:16;10.40;;;6.47;;
17854;SDS011;9053;53.358;6.382;2023-11-22T05:08:47;11.73;;;6.63;;
17854;SDS011;9053;53.358;6.382;2023-11-22T05:11:20;10.93;;;5.90;;
17854;SDS011;9053;53.358;6.382;2023-11-22T05:13:50;11.97;;;7.07;;
17854;SDS011;9053;53.358;6.382;2023-11-22T05:16:20;11.47;;;6.40;;
17854;SDS011;9053;53.358;6.382;2023-11-22T05:18:51;11.90;;;6.60;;
17854;SDS011;9053;53.358;6.382;2023-11-22T05:21:21;10.33;;;6.17;;
17854;SDS011;9053;53.358;6.382;2023-11-22T05:23:51;11.00;;;7.07;;
17854;SDS011;9053;53.358;6.382;2023-11-22T05:26:24;12.13;;;6.40;;
17854;SDS011;9053;53.358;6.382;2023-11-22T05:28:54;11.50;;;6.70;;
17854;SDS011;9053;53.358;6.382;2023-11-22T05:31:24;11.63;;;7.47;;
17854;SDS011;9053;53.358;6.382;2023-11-22T05:33:54;11.63;;;6.87;;
17854;SDS011;9053;53.358;6.382;2023-11-22T05:36:24;10.67;;;7.07;;
17854;SDS011;9053;53.358;6.382;2023-11-22T05:38:54;11.87;;;6.83;;
17854;SDS011;9053;53.358;6.382;2023-11-22T05:41:28;13.60;;;7.03;;
17854;SDS011;9053;53.358;6.382;2023-11-22T05:43:59;11.57;;;6.80;;
17854;SDS011;9053;53.358;6.382;2023-11-22T05:46:29;10.53;;;6.47;;
17854;SDS011;9053;53.358;6.382;2023-11-22T05:49:00;10.97;;;6.80;;
17854;SDS011;9053;53.358;6.382;2023-11-22T05:51:31;11.27;;;6.83;;
17854;SDS011;9053;53.358;6.382;2023-11-22T05:54:04;11.67;;;6.53;;
17854;SDS011;9053;53.358;6.382;2023-11-22T05:56:36;12.67;;;7.23;;
17854;SDS011;9053;53.358;6.382;2023-11-22T05:59:07;12.63;;;7.70;;
17854;SDS011;9053;53.358;6.382;2023-11-22T06:01:37;12.67;;;7.67;;
17854;SDS011;9053;53.358;6.382;2023-11-22T06:04:07;11.43;;;7.00;;
17854;SDS011;9053;53.358;6.382;2023-11-22T06:06:38;12.93;;;7.13;;
17854;SDS011;9053;53.358;6.382;2023-11-22T06:09:08;11.10;;;7.00;;
17854;SDS011;9053;53.358;6.382;2023-11-22T06:11:46;11.53;;;7.23;;
17854;SDS011;9053;53.358;6.382;2023-11-22T06:14:16;12.33;;;7.60;;
17854;SDS011;9053;53.358;6.382;2023-11-22T06:16:46;12.90;;;7.73;;
17854;SDS011;9053;53.358;6.382;2023-11-22T06:19:16;13.70;;;7.67;;
17854;SDS011;9053;53.358;6.382;2023-11-22T06:21:49;13.07;;;8.40;;
17854;SDS011;9053;53.358;6.382;2023-11-22T06:24:21;12.10;;;7.80;;
17854;SDS011;9053;53.358;6.382;2023-11-22T06:26:55;15.30;;;8.83;;
17854;SDS011;9053;53.358;6.382;2023-11-22T06:29:25;11.40;;;7.77;;
17854;SDS011;9053;53.358;6.382;2023-11-22T06:31:56;14.20;;;7.73;;
17854;SDS011;9053;53.358;6.382;2023-11-22T06:34:25;10.80;;;7.30;;
17854;SDS011;9053;53.358;6.382;2023-11-22T06:36:55;15.13;;;8.73;;
17854;SDS011;9053;53.358;6.382;2023-11-22T06:39:25;13.23;;;8.13;;
17854;SDS011;9053;53.358;6.382;2023-11-22T06:41:58;13.73;;;8.37;;
17854;SDS011;9053;53.358;6.382;2023-11-22T06:44:29;14.53;;;8.30;;
17854;SDS011;9053;53.358;6.382;2023-11-22T06:46:59;13.77;;;8.00;;
17854;SDS011;9053;53.358;6.382;2023-11-22T06:49:29;13.53;;;7.73;;
17854;SDS011;9053;53.358;6.382;2023-11-22T06:51:59;13.47;;;7.83;;
17854;SDS011;9053;53.358;6.382;2023-11-22T06:54:30;12.27;;;7.23;;
17854;SDS011;9053;53.358;6.382;2023-11-22T06:57:04;15.27;;;8.03;;
17854;SDS011;9053;53.358;6.382;2023-11-22T06:59:34;14.03;;;7.83;;
17854;SDS011;9053;53.358;6.382;2023-11-22T07:02:04;15.33;;;8.50;;
17854;SDS011;9053;53.358;6.382;2023-11-22T07:04:35;16.07;;;8.67;;
17854;SDS011;9053;53.358;6.382;2023-11-22T07:07:06;13.43;;;8.00;;
17854;SDS011;9053;53.358;6.382;2023-11-22T07:09:40;14.50;;;8.37;;
17854;SDS011;9053;53.358;6.382;2023-11-22T07:12:13;18.20;;;10.03;;
17854;SDS011;9053;53.358;6.382;2023-11-22T07:14:45;19.87;;;12.07;;
17854;SDS011;9053;53.358;6.382;2023-11-22T07:17:17;18.00;;;11.63;;
17854;SDS011;9053;53.358;6.382;2023-11-22T07:19:50;18.50;;;10.20;;
17854;SDS011;9053;53.358;6.382;2023-11-22T07:22:21;14.33;;;9.57;;
17854;SDS011;9053;53.358;6.382;2023-11-22T07:24:51;17.23;;;9.57;;
17854;SDS011;9053;53.358;6.382;2023-11-22T07:27:27;15.93;;;9.60;;
17854;SDS011;9053;53.358;6.382;2023-11-22T07:29:59;19.47;;;10.83;;
17854;SDS011;9053;53.358;6.382;2023-11-22T07:32:31;18.50;;;10.97;;
17854;SDS011;9053;53.358;6.382;2023-11-22T07:35:04;20.40;;;11.70;;
17854;SDS011;9053;53.358;6.382;2023-11-22T07:37:35;20.47;;;11.40;;
17854;SDS011;9053;53.358;6.382;2023-11-22T07:40:08;20.03;;;10.63;;
17854;SDS011;9053;53.358;6.382;2023-11-22T07:42:42;18.30;;;10.20;;
17854;SDS011;9053;53.358;6.382;2023-11-22T07:45:13;18.70;;;10.93;;
17854;SDS011;9053;53.358;6.382;2023-11-22T07:47:44;20.10;;;11.17;;
17854;SDS011;9053;53.358;6.382;2023-11-22T07:50:16;17.57;;;9.90;;
17854;SDS011;9053;53.358;6.382;2023-11-22T07:52:51;16.50;;;10.33;;
17854;SDS011;9053;53.358;6.382;2023-11-22T07:55:21;18.47;;;10.47;;
17854;SDS011;9053;53.358;6.382;2023-11-22T07:57:54;16.47;;;9.93;;
17854;SDS011;9053;53.358;6.382;2023-11-22T08:00:24;17.50;;;9.70;;
17854;SDS011;9053;53.358;6.382;2023-11-22T08:03:01;19.20;;;10.30;;
17854;SDS011;9053;53.358;6.382;2023-11-22T08:05:33;18.43;;;10.40;;
17854;SDS011;9053;53.358;6.382;2023-11-22T08:08:06;18.53;;;9.73;;
17854;SDS011;9053;53.358;6.382;2023-11-22T08:10:37;17.10;;;10.37;;
17854;SDS011;9053;53.358;6.382;2023-11-22T08:13:11;20.23;;;10.80;;
17854;SDS011;9053;53.358;6.382;2023-11-22T08:15:41;17.53;;;10.03;;
17854;SDS011;9053;53.358;6.382;2023-11-22T08:18:15;18.57;;;10.40;;
17854;SDS011;9053;53.358;6.382;2023-11-22T08:20:45;19.30;;;11.03;;
17854;SDS011;9053;53.358;6.382;2023-11-22T08:23:16;19.53;;;10.80;;
17854;SDS011;9053;53.358;6.382;2023-11-22T08:25:47;19.57;;;10.83;;
17854;SDS011;9053;53.358;6.382;2023-11-22T08:28:20;22.03;;;11.90;;
17854;SDS011;9053;53.358;6.382;2023-11-22T08:30:50;17.87;;;10.33;;
17854;SDS011;9053;53.358;6.382;2023-11-22T08:33:20;19.97;;;10.83;;
17854;SDS011;9053;53.358;6.382;2023-11-22T08:35:51;22.17;;;10.87;;
17854;SDS011;9053;53.358;6.382;2023-11-22T08:38:25;18.33;;;10.97;;
17854;SDS011;9053;53.358;6.382;2023-11-22T08:40:56;18.00;;;10.57;;
17854;SDS011;9053;53.358;6.382;2023-11-22T08:43:29;18.43;;;10.37;;
17854;SDS011;9053;53.358;6.382;2023-11-22T08:45:59;20.37;;;10.97;;
17854;SDS011;9053;53.358;6.382;2023-11-22T08:48:40;23.00;;;12.33;;
17854;SDS011;9053;53.358;6.382;2023-11-22T08:51:10;17.80;;;10.20;;
17854;SDS011;9053;53.358;6.382;2023-11-22T08:53:42;17.57;;;9.87;;
17854;SDS011;9053;53.358;6.382;2023-11-22T08:56:13;20.73;;;10.53;;
17854;SDS011;9053;53.358;6.382;2023-11-22T08:58:45;18.60;;;11.30;;
17854;SDS011;9053;53.358;6.382;2023-11-22T09:01:15;22.77;;;11.57;;
17854;SDS011;9053;53.358;6.382;2023-11-22T09:03:45;20.37;;;11.20;;
17854;SDS011;9053;53.358;6.382;2023-11-22T09:06:17;21.67;;;10.97;;
17854;SDS011;9053;53.358;6.382;2023-11-22T09:08:47;20.77;;;11.70;;
17854;SDS011;9053;53.358;6.382;2023-11-22T09:11:17;18.03;;;11.43;;
17854;SDS011;9053;53.358;6.382;2023-11-22T09:13:52;20.63;;;11.30;;
17854;SDS011;9053;53.358;6.382;2023-11-22T09:16:23;21.77;;;11.90;;
17854;SDS011;9053;53.358;6.382;2023-11-22T09:18:54;23.17;;;12.83;;
17854;SDS011;9053;53.358;6.382;2023-11-22T09:21:24;21.90;;;11.97;;
17854;SDS011;9053;53.358;6.382;2023-11-22T09:23:56;19.50;;;11.57;;
17854;SDS011;9053;53.358;6.382;2023-11-22T09:26:26;18.37;;;10.50;;
17854;SDS011;9053;53.358;6.382;2023-11-22T09:28:58;21.17;;;11.17;;
17854;SDS011;9053;53.358;6.382;2023-11-22T09:31:28;22.17;;;11.50;;
17854;SDS011;9053;53.358;6.382;2023-11-22T09:33:58;20.80;;;11.80;;
17854;SDS011;9053;53.358;6.382;2023-11-22T09:36:30;18.40;;;10.73;;
17854;SDS011;9053;53.358;6.382;2023-11-22T09:39:01;19.30;;;10.27;;
17854;SDS011;9053;53.358;6.382;2023-11-22T09:41:35;18.17;;;10.97;;
17854;SDS011;9053;53.358;6.382;2023-11-22T09:44:08;19.33;;;11.73;;
17854;SDS011;9053;53.358;6.382;2023-11-22T09:46:39;18.37;;;10.53;;
17854;SDS011;9053;53.358;6.382;2023-11-22T09:49:13;18.30;;;10.20;;
17854;SDS011;9053;53.358;6.382;2023-11-22T09:51:49;19.63;;;10.77;;
17854;SDS011;9053;53.358;6.382;2023-11-22T09:54:25;17.83;;;10.40;;
17854;SDS011;9053;53.358;6.382;2023-11-22T09:56:58;15.97;;;10.33;;
17854;SDS011;9053;53.358;6.382;2023-11-22T09:59:32;18.93;;;10.50;;
17854;SDS011;9053;53.358;6.382;2023-11-22T10:02:02;19.97;;;10.57;;
17854;SDS011;9053;53.358;6.382;2023-11-22T10:04:33;19.47;;;11.53;;
17854;SDS011;9053;53.358;6.382;2023-11-22T10:07:03;21.50;;;12.13;;
17854;SDS011;9053;53.358;6.382;2023-11-22T10:09:35;20.83;;;10.97;;
17854;SDS011;9053;53.358;6.382;2023-11-22T10:12:08;20.80;;;11.70;;
17854;SDS011;9053;53.358;6.382;2023-11-22T10:14:41;21.57;;;12.23;;
17854;SDS011;9053;53.358;6.382;2023-11-22T10:17:11;17.53;;;10.07;;
17854;SDS011;9053;53.358;6.382;2023-11-22T10:19:42;24.60;;;11.93;;
17854;SDS011;9053;53.358;6.382;2023-11-22T10:22:12;19.30;;;10.77;;
17854;SDS011;9053;53.358;6.382;2023-11-22T10:24:44;17.73;;;11.00;;
17854;SDS011;9053;53.358;6.382;2023-11-22T10:27:14;18.20;;;10.93;;
17854;SDS011;9053;53.358;6.382;2023-11-22T10:29:48;20.07;;;10.93;;
17854;SDS011;9053;53.358;6.382;2023-11-22T10:32:19;20.43;;;11.23;;
17854;SDS011;9053;53.358;6.382;2023-11-22T10:34:49;19.23;;;10.63;;
17854;SDS011;9053;53.358;6.382;2023-11-22T10:37:21;18.80;;;11.10;;
17854;SDS011;9053;53.358;6.382;2023-11-22T10:39:52;17.97;;;10.90;;
17854;SDS011;9053;53.358;6.382;2023-11-22T10:42:22;18.00;;;10.47;;
17854;SDS011;9053;53.358;6.382;2023-11-22T10:44:56;19.47;;;10.77;;
17854;SDS011;9053;53.358;6.382;2023-11-22T10:47:30;17.13;;;10.60;;
17854;SDS011;9053;53.358;6.382;2023-11-22T10:50:02;16.37;;;10.20;;
17854;SDS011;9053;53.358;6.382;2023-11-22T10:52:40;19.07;;;10.40;;
17854;SDS011;9053;53.358;6.382;2023-11-22T10:55:12;17.07;;;10.47;;
17854;SDS011;9053;53.358;6.382;2023-11-22T10:57:49;19.13;;;10.27;;
17854;SDS011;9053;53.358;6.382;2023-11-22T11:00:25;19.97;;;10.47;;
17854;SDS011;9053;53.358;6.382;2023-11-22T11:02:57;18.83;;;11.00;;
17854;SDS011;9053;53.358;6.382;2023-11-22T11:05:31;17.43;;;9.87;;
17854;SDS011;9053;53.358;6.382;2023-11-22T11:08:06;16.47;;;10.20;;
17854;SDS011;9053;53.358;6.382;2023-11-22T11:10:39;18.23;;;10.83;;
17854;SDS011;9053;53.358;6.382;2023-11-22T11:13:10;17.20;;;10.80;;
17854;SDS011;9053;53.358;6.382;2023-11-22T11:15:43;18.37;;;10.70;;
17854;SDS011;9053;53.358;6.382;2023-11-22T11:18:14;16.10;;;10.77;;
17854;SDS011;9053;53.358;6.382;2023-11-22T11:20:46;20.37;;;11.03;;
17854;SDS011;9053;53.358;6.382;2023-11-22T11:23:19;16.47;;;9.97;;
17854;SDS011;9053;53.358;6.382;2023-11-22T11:25:50;16.67;;;9.93;;
17854;SDS011;9053;53.358;6.382;2023-11-22T11:28:23;15.47;;;10.33;;
17854;SDS011;9053;53.358;6.382;2023-11-22T11:30:57;19.83;;;10.77;;
17854;SDS011;9053;53.358;6.382;2023-11-22T11:33:32;14.93;;;10.40;;
17854;SDS011;9053;53.358;6.382;2023-11-22T11:36:03;15.93;;;9.90;;
17854;SDS011;9053;53.358;6.382;2023-11-22T11:38:34;15.27;;;9.37;;
17854;SDS011;9053;53.358;6.382;2023-11-22T11:41:08;15.87;;;10.80;;
17854;SDS011;9053;53.358;6.382;2023-11-22T11:43:40;16.63;;;9.60;;
17854;SDS011;9053;53.358;6.382;2023-11-22T11:46:15;15.03;;;10.00;;
17854;SDS011;9053;53.358;6.382;2023-11-22T11:48:47;15.23;;;9.33;;
17854;SDS011;9053;53.358;6.382;2023-11-22T11:51:20;15.93;;;9.80;;
17854;SDS011;9053;53.358;6.382;2023-11-22T11:53:57;14.67;;;9.73;;
17854;SDS011;9053;53.358;6.382;2023-11-22T11:56:27;14.77;;;9.23;;
17854;SDS011;9053;53.358;6.382;2023-11-22T11:58:59;15.23;;;9.20;;
17854;SDS011;9053;53.358;6.382;2023-11-22T12:01:34;15.33;;;9.43;;
17854;SDS011;9053;53.358;6.382;2023-11-22T12:04:04;14.10;;;9.17;;
17854;SDS011;9053;53.358;6.382;2023-11-22T12:06:35;14.23;;;8.57;;
17854;SDS011;9053;53.358;6.382;2023-11-22T12:09:06;13.50;;;9.30;;
17854;SDS011;9053;53.358;6.382;2023-11-22T12:11:37;14.63;;;9.27;;
17854;SDS011;9053;53.358;6.382;2023-11-22T12:14:10;13.27;;;8.93;;
17854;SDS011;9053;53.358;6.382;2023-11-22T12:16:43;11.10;;;8.33;;
17854;SDS011;9053;53.358;6.382;2023-11-22T12:19:20;14.43;;;9.07;;
17854;SDS011;9053;53.358;6.382;2023-11-22T12:21:52;12.20;;;8.17;;
17854;SDS011;9053;53.358;6.382;2023-11-22T12:24:22;13.23;;;8.67;;
17854;SDS011;9053;53.358;6.382;2023-11-22T12:26:54;13.30;;;8.00;;
17854;SDS011;9053;53.358;6.382;2023-11-22T12:29:25;14.90;;;9.03;;
17854;SDS011;9053;53.358;6.382;2023-11-22T12:31:58;14.73;;;9.20;;
17854;SDS011;9053;53.358;6.382;2023-11-22T12:34:29;13.30;;;8.90;;
17854;SDS011;9053;53.358;6.382;2023-11-22T12:37:00;14.40;;;8.70;;
17854;SDS011;9053;53.358;6.382;2023-11-22T12:39:30;12.60;;;8.10;;
17854;SDS011;9053;53.358;6.382;2023-11-22T12:42:01;13.63;;;8.50;;
17854;SDS011;9053;53.358;6.382;2023-11-22T12:44:46;14.53;;;9.17;;
17854;SDS011;9053;53.358;6.382;2023-11-22T12:47:33;13.43;;;8.80;;
17854;SDS011;9053;53.358;6.382;2023-11-22T12:50:07;12.63;;;7.90;;
17854;SDS011;9053;53.358;6.382;2023-11-22T12:52:58;15.27;;;8.90;;
17854;SDS011;9053;53.358;6.382;2023-11-22T12:55:30;12.53;;;8.73;;
17854;SDS011;9053;53.358;6.382;2023-11-22T12:58:02;17.10;;;10.07;;
17854;SDS011;9053;53.358;6.382;2023-11-22T13:00:32;14.33;;;8.97;;
17854;SDS011;9053;53.358;6.382;2023-11-22T13:03:05;14.30;;;8.83;;
17854;SDS011;9053;53.358;6.382;2023-11-22T13:05:37;14.53;;;9.30;;
17854;SDS011;9053;53.358;6.382;2023-11-22T13:08:09;12.33;;;8.67;;
17854;SDS011;9053;53.358;6.382;2023-11-22T13:10:41;15.70;;;9.27;;
17854;SDS011;9053;53.358;6.382;2023-11-22T13:13:15;14.73;;;8.57;;
17854;SDS011;9053;53.358;6.382;2023-11-22T13:15:46;12.27;;;8.07;;
17854;SDS011;9053;53.358;6.382;2023-11-22T13:18:19;15.40;;;9.90;;
17854;SDS011;9053;53.358;6.382;2023-11-22T13:20:49;15.73;;;8.83;;
17854;SDS011;9053;53.358;6.382;2023-11-22T13:23:19;14.13;;;8.33;;
17854;SDS011;9053;53.358;6.382;2023-11-22T13:25:50;13.47;;;9.00;;
17854;SDS011;9053;53.358;6.382;2023-11-22T13:28:20;14.97;;;9.00;;
17854;SDS011;9053;53.358;6.382;2023-11-22T13:30:52;14.43;;;9.23;;
17854;SDS011;9053;53.358;6.382;2023-11-22T13:33:27;11.37;;;8.07;;
17854;SDS011;9053;53.358;6.382;2023-11-22T13:35:57;12.53;;;8.00;;
17854;SDS011;9053;53.358;6.382;2023-11-22T13:38:27;14.53;;;8.70;;
17854;SDS011;9053;53.358;6.382;2023-11-22T13:40:58;14.70;;;8.67;;
17854;SDS011;9053;53.358;6.382;2023-11-22T13:43:28;14.43;;;8.53;;
17854;SDS011;9053;53.358;6.382;2023-11-22T13:45:59;14.37;;;8.87;;
17854;SDS011;9053;53.358;6.382;2023-11-22T13:48:32;12.63;;;8.83;;
17854;SDS011;9053;53.358;6.382;2023-11-22T13:51:03;13.20;;;8.90;;
17854;SDS011;9053;53.358;6.382;2023-11-22T13:53:38;12.70;;;8.50;;
17854;SDS011;9053;53.358;6.382;2023-11-22T13:56:11;13.13;;;8.60;;
17854;SDS011;9053;53.358;6.382;2023-11-22T13:58:44;13.50;;;8.30;;
17854;SDS011;9053;53.358;6.382;2023-11-22T14:01:14;14.13;;;8.80;;
17854;SDS011;9053;53.358;6.382;2023-11-22T14:03:51;13.83;;;9.40;;
17854;SDS011;9053;53.358;6.382;2023-11-22T14:06:23;15.20;;;8.70;;
17854;SDS011;9053;53.358;6.382;2023-11-22T14:08:53;15.20;;;9.13;;
17854;SDS011;9053;53.358;6.382;2023-11-22T14:11:24;15.47;;;9.43;;
17854;SDS011;9053;53.358;6.382;2023-11-22T14:13:54;16.17;;;9.20;;
17854;SDS011;9053;53.358;6.382;2023-11-22T14:16:25;13.10;;;8.60;;
17854;SDS011;9053;53.358;6.382;2023-11-22T14:19:00;14.27;;;9.00;;
17854;SDS011;9053;53.358;6.382;2023-11-22T14:21:32;14.23;;;8.60;;
17854;SDS011;9053;53.358;6.382;2023-11-22T14:24:03;15.00;;;8.43;;
17854;SDS011;9053;53.358;6.382;2023-11-22T14:26:35;13.10;;;8.70;;
17854;SDS011;9053;53.358;6.382;2023-11-22T14:29:05;14.50;;;8.67;;
17854;SDS011;9053;53.358;6.382;2023-11-22T14:31:35;15.47;;;9.77;;
17854;SDS011;9053;53.358;6.382;2023-11-22T14:34:08;14.90;;;9.10;;
17854;SDS011;9053;53.358;6.382;2023-11-22T14:36:39;16.63;;;9.87;;
17854;SDS011;9053;53.358;6.382;2023-11-22T14:39:09;13.07;;;8.33;;
17854;SDS011;9053;53.358;6.382;2023-11-22T14:41:41;14.17;;;8.30;;
17854;SDS011;9053;53.358;6.382;2023-11-22T14:44:12;13.50;;;8.90;;
17854;SDS011;9053;53.358;6.382;2023-11-22T14:46:43;13.07;;;9.07;;
17854;SDS011;9053;53.358;6.382;2023-11-22T14:49:16;15.10;;;8.50;;
17854;SDS011;9053;53.358;6.382;2023-11-22T14:51:47;13.60;;;8.00;;
17854;SDS011;9053;53.358;6.382;2023-11-22T14:54:21;13.90;;;8.20;;
17854;SDS011;9053;53.358;6.382;2023-11-22T14:56:52;12.23;;;8.30;;
17854;SDS011;9053;53.358;6.382;2023-11-22T14:59:28;15.80;;;9.33;;
17854;SDS011;9053;53.358;6.382;2023-11-22T15:01:59;11.50;;;7.90;;
17854;SDS011;9053;53.358;6.382;2023-11-22T15:04:33;12.40;;;8.53;;
17854;SDS011;9053;53.358;6.382;2023-11-22T15:07:04;14.40;;;8.60;;
17854;SDS011;9053;53.358;6.382;2023-11-22T15:09:34;15.63;;;9.23;;
17854;SDS011;9053;53.358;6.382;2023-11-22T15:12:05;15.40;;;9.53;;
17854;SDS011;9053;53.358;6.382;2023-11-22T15:14:36;14.63;;;9.57;;